createdAt,value
2018-04-12T00:00:24.116Z,999.59
2018-04-12T00:00:50.268Z,999.55
2018-04-12T00:01:16.476Z,999.53
2018-04-12T00:01:42.630Z,999.58
2018-04-12T00:02:08.782Z,999.55
2018-04-12T00:02:34.934Z,999.53
2018-04-12T00:03:01.089Z,999.54
2018-04-12T00:03:27.242Z,999.51
2018-04-12T00:03:53.392Z,999.56
2018-04-12T00:04:19.547Z,999.58
2018-04-12T00:04:45.700Z,999.59
2018-04-12T00:05:11.882Z,999.56
2018-04-12T00:05:38.030Z,999.52
2018-04-12T00:06:04.212Z,999.5
2018-04-12T00:06:30.366Z,999.49
2018-04-12T00:06:56.546Z,999.49
2018-04-12T00:07:22.697Z,999.48
2018-04-12T00:07:48.853Z,999.47
2018-04-12T00:08:15.033Z,999.49
2018-04-12T00:08:41.237Z,999.46
2018-04-12T00:09:07.342Z,999.45
2018-04-12T00:09:33.518Z,999.48
2018-04-12T00:09:59.701Z,999.44
2018-04-12T00:10:25.855Z,999.42
2018-04-12T00:10:52.007Z,999.41
2018-04-12T00:11:18.160Z,999.46
2018-04-12T00:11:44.314Z,999.47
2018-04-12T00:12:10.466Z,999.5
2018-04-12T00:12:36.644Z,999.47
2018-04-12T00:13:02.799Z,999.47
2018-04-12T00:13:28.951Z,999.49
2018-04-12T00:13:55.105Z,999.5
2018-04-12T00:14:21.255Z,999.47
2018-04-12T00:14:47.408Z,999.48
2018-04-12T00:15:13.568Z,999.51
2018-04-12T00:15:39.713Z,999.52
2018-04-12T00:16:06.466Z,999.51
2018-04-12T00:16:32.647Z,999.45
2018-04-12T00:16:58.800Z,999.5
2018-04-12T00:17:24.956Z,999.43
2018-04-12T00:17:51.107Z,999.48
2018-04-12T00:18:17.261Z,999.46
2018-04-12T00:18:43.413Z,999.44
2018-04-12T00:19:09.591Z,999.49
2018-04-12T00:19:35.743Z,999.47
2018-04-12T00:20:01.916Z,999.46
2018-04-12T00:20:28.051Z,999.41
2018-04-12T00:20:54.208Z,999.42
2018-04-12T00:21:20.358Z,999.43
2018-04-12T00:21:46.540Z,999.44
2018-04-12T00:22:12.720Z,999.41
2018-04-12T00:22:38.871Z,999.44
2018-04-12T00:23:05.056Z,999.46
2018-04-12T00:23:31.204Z,999.47
2018-04-12T00:23:57.387Z,999.44
2018-04-12T00:24:23.543Z,999.41
2018-04-12T00:24:49.698Z,999.43
2018-04-12T00:25:15.872Z,999.45
2018-04-12T00:25:42.027Z,999.47
2018-04-12T00:26:08.181Z,999.49
2018-04-12T00:26:34.362Z,999.44
2018-04-12T00:27:00.544Z,999.44
2018-04-12T00:27:26.723Z,999.47
2018-04-12T00:27:52.903Z,999.43
2018-04-12T00:28:19.054Z,999.42
2018-04-12T00:28:45.205Z,999.41
2018-04-12T00:29:11.384Z,999.4
2018-04-12T00:29:37.612Z,999.41
2018-04-12T00:30:03.764Z,999.41
2018-04-12T00:30:29.946Z,999.35
2018-04-12T00:30:56.100Z,999.39
2018-04-12T00:31:22.280Z,999.35
2018-04-12T00:31:48.440Z,999.45
2018-04-12T00:32:14.608Z,999.38
2018-04-12T00:32:40.765Z,999.39
2018-04-12T00:33:06.916Z,999.41
2018-04-12T00:33:33.067Z,999.39
2018-04-12T00:33:59.222Z,999.4
2018-04-12T00:34:25.402Z,999.43
2018-04-12T00:34:51.582Z,999.4
2018-04-12T00:35:17.733Z,999.39
2018-04-12T00:35:43.911Z,999.41
2018-04-12T00:36:10.092Z,999.4
2018-04-12T00:36:36.240Z,999.36
2018-04-12T00:37:02.419Z,999.36
2018-04-12T00:37:28.570Z,999.33
2018-04-12T00:37:54.724Z,999.33
2018-04-12T00:38:20.902Z,999.33
2018-04-12T00:38:47.066Z,999.31
2018-04-12T00:39:13.204Z,999.32
2018-04-12T00:39:39.358Z,999.32
2018-04-12T00:40:05.508Z,999.26
2018-04-12T00:40:31.660Z,999.28
2018-04-12T00:40:57.837Z,999.25
2018-04-12T00:41:23.989Z,999.26
2018-04-12T00:41:50.144Z,999.28
2018-04-12T00:42:16.324Z,999.29
2018-04-12T00:42:42.503Z,999.24
2018-04-12T00:43:08.711Z,999.25
2018-04-12T00:43:34.865Z,999.25
2018-04-12T00:44:01.045Z,999.24
2018-04-12T00:44:27.199Z,999.25
2018-04-12T00:44:53.350Z,999.21
2018-04-12T00:45:19.528Z,999.21
2018-04-12T00:45:45.682Z,999.21
2018-04-12T00:46:11.835Z,999.2
2018-04-12T00:46:37.987Z,999.19
2018-04-12T00:47:04.140Z,999.17
2018-04-12T00:47:30.322Z,999.18
2018-04-12T00:47:56.476Z,999.17
2018-04-12T00:48:22.661Z,999.16
2018-04-12T00:48:48.811Z,999.14
2018-04-12T00:49:14.992Z,999.16
2018-04-12T00:49:41.148Z,999.13
2018-04-12T00:50:07.301Z,999.14
2018-04-12T00:50:33.456Z,999.12
2018-04-12T00:50:59.609Z,999.12
2018-04-12T00:51:25.795Z,999.12
2018-04-12T00:51:51.971Z,999.12
2018-04-12T00:52:18.146Z,999.14
2018-04-12T00:52:44.300Z,999.11
2018-04-12T00:53:10.481Z,999.09
2018-04-12T00:53:36.633Z,999.12
2018-04-12T00:54:02.811Z,999.13
2018-04-12T00:54:28.962Z,999.15
2018-04-12T00:54:55.112Z,999.12
2018-04-12T00:55:21.268Z,999.14
2018-04-12T00:55:47.420Z,999.1
2018-04-12T00:56:13.576Z,999.08
2018-04-12T00:56:39.733Z,999.08
2018-04-12T00:57:05.906Z,999.1
2018-04-12T00:57:32.055Z,999.06
2018-04-12T00:57:58.212Z,999.06
2018-04-12T00:58:24.386Z,999.04
2018-04-12T00:58:50.541Z,999.09
2018-04-12T00:59:16.698Z,999.09
2018-04-12T00:59:42.873Z,999.09
2018-04-12T01:00:09.028Z,999.09
2018-04-12T01:00:35.178Z,999.11
2018-04-12T01:01:01.331Z,999.07
2018-04-12T01:01:27.482Z,999.13
2018-04-12T01:01:53.634Z,999.14
2018-04-12T01:02:19.851Z,999.11
2018-04-12T01:02:46.015Z,999.11
2018-04-12T01:03:12.322Z,999.13
2018-04-12T01:03:38.508Z,999.11
2018-04-12T01:04:04.662Z,999.14
2018-04-12T01:04:30.817Z,999.16
2018-04-12T01:04:57.246Z,999.1
2018-04-12T01:05:23.403Z,999.13
2018-04-12T01:05:49.580Z,999.12
2018-04-12T01:06:15.732Z,999.12
2018-04-12T01:06:41.882Z,999.11
2018-04-12T01:07:08.036Z,999.09
2018-04-12T01:07:34.196Z,999.11
2018-04-12T01:08:00.344Z,999.12
2018-04-12T01:08:26.497Z,999.1
2018-04-12T01:08:52.651Z,999.07
2018-04-12T01:09:18.803Z,999.11
2018-04-12T01:09:44.954Z,999.12
2018-04-12T01:10:11.142Z,999.14
2018-04-12T01:10:37.342Z,999.12
2018-04-12T01:11:03.494Z,999.15
2018-04-12T01:11:29.702Z,999.13
2018-04-12T01:11:55.855Z,999.13
2018-04-12T01:12:22.009Z,999.12
2018-04-12T01:12:48.164Z,999.1
2018-04-12T01:13:14.345Z,999.1
2018-04-12T01:13:40.523Z,999.13
2018-04-12T01:14:06.731Z,999.12
2018-04-12T01:14:32.952Z,999.14
2018-04-12T01:14:59.126Z,999.09
2018-04-12T01:15:25.283Z,999.12
2018-04-12T01:15:51.502Z,999.07
2018-04-12T01:16:17.655Z,999.1
2018-04-12T01:16:43.809Z,999.08
2018-04-12T01:17:09.961Z,999.08
2018-04-12T01:17:36.111Z,999.07
2018-04-12T01:18:02.267Z,999.12
2018-04-12T01:18:28.450Z,999.01
2018-04-12T01:18:54.628Z,999.05
2018-04-12T01:19:20.779Z,999.03
2018-04-12T01:19:46.936Z,999.02
2018-04-12T01:20:13.089Z,999.06
2018-04-12T01:20:39.255Z,999.03
2018-04-12T01:21:05.427Z,999.03
2018-04-12T01:21:31.578Z,999.07
2018-04-12T01:21:57.739Z,999.05
2018-04-12T01:22:23.884Z,999.05
2018-04-12T01:22:50.039Z,999.03
2018-04-12T01:23:16.191Z,999.01
2018-04-12T01:23:42.342Z,999.01
2018-04-12T01:24:08.495Z,998.97
2018-04-12T01:24:34.648Z,999.01
2018-04-12T01:25:00.850Z,999.02
2018-04-12T01:25:27.004Z,999
2018-04-12T01:25:53.157Z,999.03
2018-04-12T01:26:19.313Z,998.99
2018-04-12T01:26:45.491Z,998.98
2018-04-12T01:27:11.646Z,998.99
2018-04-12T01:27:37.807Z,998.99
2018-04-12T01:28:03.960Z,998.96
2018-04-12T01:28:30.141Z,998.99
2018-04-12T01:28:56.294Z,998.96
2018-04-12T01:29:22.447Z,998.99
2018-04-12T01:29:48.598Z,999.01
2018-04-12T01:30:14.753Z,998.99
2018-04-12T01:30:40.903Z,998.98
2018-04-12T01:31:07.089Z,998.98
2018-04-12T01:31:33.267Z,998.96
2018-04-12T01:31:59.422Z,998.98
2018-04-12T01:32:25.571Z,998.98
2018-04-12T01:32:51.725Z,998.96
2018-04-12T01:33:17.880Z,998.99
2018-04-12T01:33:44.060Z,998.95
2018-04-12T01:34:10.212Z,998.94
2018-04-12T01:34:36.364Z,998.93
2018-04-12T01:35:02.569Z,998.93
2018-04-12T01:35:28.721Z,998.92
2018-04-12T01:35:54.874Z,998.87
2018-04-12T01:36:21.052Z,998.86
2018-04-12T01:36:47.205Z,998.87
2018-04-12T01:37:13.357Z,998.86
2018-04-12T01:37:39.514Z,998.83
2018-04-12T01:38:05.661Z,998.82
2018-04-12T01:38:31.842Z,998.85
2018-04-12T01:38:57.996Z,998.84
2018-04-12T01:39:24.150Z,998.85
2018-04-12T01:39:50.302Z,998.86
2018-04-12T01:40:16.510Z,998.86
2018-04-12T01:40:42.663Z,998.81
2018-04-12T01:41:08.814Z,998.84
2018-04-12T01:41:34.970Z,998.77
2018-04-12T01:42:01.126Z,998.79
2018-04-12T01:42:27.279Z,998.79
2018-04-12T01:42:53.459Z,998.79
2018-04-12T01:43:19.613Z,998.76
2018-04-12T01:43:45.766Z,998.75
2018-04-12T01:44:11.915Z,998.73
2018-04-12T01:44:38.082Z,998.79
2018-04-12T01:45:04.275Z,998.7
2018-04-12T01:45:30.451Z,998.75
2018-04-12T01:45:56.606Z,998.74
2018-04-12T01:46:22.788Z,998.74
2018-04-12T01:46:48.966Z,998.75
2018-04-12T01:47:15.122Z,998.74
2018-04-12T01:47:41.270Z,998.74
2018-04-12T01:48:07.427Z,998.73
2018-04-12T01:48:33.576Z,998.74
2018-04-12T01:48:59.731Z,998.73
2018-04-12T01:49:25.904Z,998.73
2018-04-12T01:49:52.059Z,998.75
2018-04-12T01:50:18.240Z,998.76
2018-04-12T01:50:44.422Z,998.7
2018-04-12T01:51:10.603Z,998.75
2018-04-12T01:51:36.783Z,998.73
2018-04-12T01:52:02.962Z,998.74
2018-04-12T01:52:29.113Z,998.72
2018-04-12T01:52:55.264Z,998.75
2018-04-12T01:53:21.465Z,998.7
2018-04-12T01:53:47.618Z,998.7
2018-04-12T01:54:13.775Z,998.73
2018-04-12T01:54:39.952Z,998.7
2018-04-12T01:55:06.106Z,998.72
2018-04-12T01:55:32.257Z,998.71
2018-04-12T01:55:58.438Z,998.69
2018-04-12T01:56:24.592Z,998.64
2018-04-12T01:56:50.770Z,998.65
2018-04-12T01:57:16.923Z,998.6
2018-04-12T01:57:43.077Z,998.62
2018-04-12T01:58:09.228Z,998.63
2018-04-12T01:58:35.385Z,998.62
2018-04-12T01:59:01.537Z,998.64
2018-04-12T01:59:27.688Z,998.63
2018-04-12T01:59:53.836Z,998.56
2018-04-12T02:00:19.988Z,998.59
2018-04-12T02:00:46.140Z,998.58
2018-04-12T02:01:12.298Z,998.59
2018-04-12T02:01:38.469Z,998.6
2018-04-12T02:02:04.621Z,998.6
2018-04-12T02:02:30.772Z,998.6
2018-04-12T02:02:56.980Z,998.58
2018-04-12T02:03:23.131Z,998.59
2018-04-12T02:03:49.339Z,998.59
2018-04-12T02:04:15.515Z,998.6
2018-04-12T02:04:41.665Z,998.61
2018-04-12T02:05:07.818Z,998.62
2018-04-12T02:05:33.971Z,998.57
2018-04-12T02:06:00.150Z,998.63
2018-04-12T02:06:26.333Z,998.64
2018-04-12T02:06:52.483Z,998.63
2018-04-12T02:07:18.636Z,998.65
2018-04-12T02:07:44.788Z,998.59
2018-04-12T02:08:10.940Z,998.58
2018-04-12T02:08:37.094Z,998.6
2018-04-12T02:09:03.244Z,998.59
2018-04-12T02:09:29.401Z,998.58
2018-04-12T02:09:55.581Z,998.55
2018-04-12T02:10:21.734Z,998.52
2018-04-12T02:10:47.889Z,998.51
2018-04-12T02:11:14.039Z,998.47
2018-04-12T02:11:40.192Z,998.52
2018-04-12T02:12:06.347Z,998.48
2018-04-12T02:12:32.500Z,998.51
2018-04-12T02:12:58.656Z,998.46
2018-04-12T02:13:24.806Z,998.47
2018-04-12T02:13:50.985Z,998.45
2018-04-12T02:14:17.167Z,998.48
2018-04-12T02:14:43.320Z,998.46
2018-04-12T02:15:09.475Z,998.45
2018-04-12T02:15:35.655Z,998.44
2018-04-12T02:16:01.808Z,998.45
2018-04-12T02:16:27.967Z,998.44
2018-04-12T02:16:54.148Z,998.42
2018-04-12T02:17:20.325Z,998.46
2018-04-12T02:17:46.478Z,998.45
2018-04-12T02:18:12.664Z,998.45
2018-04-12T02:18:38.835Z,998.41
2018-04-12T02:19:05.012Z,998.41
2018-04-12T02:19:31.164Z,998.41
2018-04-12T02:19:57.344Z,998.36
2018-04-12T02:20:23.522Z,998.37
2018-04-12T02:20:49.702Z,998.37
2018-04-12T02:21:15.856Z,998.32
2018-04-12T02:21:42.035Z,998.31
2018-04-12T02:22:08.191Z,998.27
2018-04-12T02:22:34.338Z,998.27
2018-04-12T02:23:00.490Z,998.31
2018-04-12T02:23:26.645Z,998.32
2018-04-12T02:23:52.824Z,998.32
2018-04-12T02:24:19.006Z,998.31
2018-04-12T02:24:45.156Z,998.32
2018-04-12T02:25:11.332Z,998.34
2018-04-12T02:25:37.482Z,998.31
2018-04-12T02:26:03.637Z,998.35
2018-04-12T02:26:29.786Z,998.33
2018-04-12T02:26:55.936Z,998.34
2018-04-12T02:27:22.115Z,998.35
2018-04-12T02:27:48.295Z,998.34
2018-04-12T02:28:14.471Z,998.32
2018-04-12T02:28:40.622Z,998.37
2018-04-12T02:29:06.792Z,998.32
2018-04-12T02:29:32.945Z,998.3
2018-04-12T02:29:59.097Z,998.29
2018-04-12T02:30:25.304Z,998.28
2018-04-12T02:30:51.481Z,998.27
2018-04-12T02:31:17.662Z,998.28
2018-04-12T02:31:43.816Z,998.3
2018-04-12T02:32:10.022Z,998.29
2018-04-12T02:32:36.174Z,998.3
2018-04-12T02:33:02.352Z,998.29
2018-04-12T02:33:28.504Z,998.31
2018-04-12T02:33:54.713Z,998.29
2018-04-12T02:34:20.867Z,998.31
2018-04-12T02:34:47.049Z,998.3
2018-04-12T02:35:13.217Z,998.32
2018-04-12T02:35:39.367Z,998.28
2018-04-12T02:36:05.549Z,998.33
2018-04-12T02:36:31.707Z,998.31
2018-04-12T02:36:57.879Z,998.31
2018-04-12T02:37:24.141Z,998.31
2018-04-12T02:37:50.320Z,998.3
2018-04-12T02:38:16.468Z,998.25
2018-04-12T02:38:42.617Z,998.22
2018-04-12T02:39:08.823Z,998.28
2018-04-12T02:39:35.003Z,998.28
2018-04-12T02:40:01.154Z,998.23
2018-04-12T02:40:27.308Z,998.24
2018-04-12T02:40:53.539Z,998.25
2018-04-12T02:41:19.717Z,998.26
2018-04-12T02:41:45.870Z,998.26
2018-04-12T02:42:12.022Z,998.22
2018-04-12T02:42:38.202Z,998.23
2018-04-12T02:43:04.380Z,998.21
2018-04-12T02:43:30.585Z,998.23
2018-04-12T02:43:56.765Z,998.24
2018-04-12T02:44:22.917Z,998.29
2018-04-12T02:44:49.069Z,998.25
2018-04-12T02:45:15.249Z,998.22
2018-04-12T02:45:41.428Z,998.26
2018-04-12T02:46:07.607Z,998.23
2018-04-12T02:46:33.758Z,998.28
2018-04-12T02:46:59.909Z,998.3
2018-04-12T02:47:26.089Z,998.25
2018-04-12T02:47:52.266Z,998.27
2018-04-12T02:48:18.453Z,998.25
2018-04-12T02:48:44.625Z,998.24
2018-04-12T02:49:10.783Z,998.28
2018-04-12T02:49:36.935Z,998.27
2018-04-12T02:50:03.082Z,998.28
2018-04-12T02:50:29.233Z,998.25
2018-04-12T02:50:55.415Z,998.24
2018-04-12T02:51:21.554Z,998.25
2018-04-12T02:51:47.740Z,998.23
2018-04-12T02:52:13.883Z,998.21
2018-04-12T02:52:40.043Z,998.2
2018-04-12T02:53:06.228Z,998.24
2018-04-12T02:53:32.392Z,998.22
2018-04-12T02:53:58.558Z,998.23
2018-04-12T02:54:24.716Z,998.23
2018-04-12T02:54:50.872Z,998.16
2018-04-12T02:55:17.037Z,998.18
2018-04-12T02:55:43.197Z,998.18
2018-04-12T02:56:09.357Z,998.2
2018-04-12T02:56:35.553Z,998.2
2018-04-12T02:57:01.689Z,998.16
2018-04-12T02:57:27.850Z,998.13
2018-04-12T02:57:54.014Z,998.12
2018-04-12T02:58:20.150Z,998.12
2018-04-12T02:58:46.314Z,998.15
2018-04-12T02:59:12.479Z,998.15
2018-04-12T02:59:38.619Z,998.11
2018-04-12T03:00:04.787Z,998.16
2018-04-12T03:00:30.919Z,998.17
2018-04-12T03:00:57.092Z,998.16
2018-04-12T03:01:23.230Z,998.16
2018-04-12T03:01:49.366Z,998.12
2018-04-12T03:02:15.538Z,998.15
2018-04-12T03:02:41.707Z,998.15
2018-04-12T03:03:07.843Z,998.16
2018-04-12T03:03:33.983Z,998.14
2018-04-12T03:04:00.132Z,998.14
2018-04-12T03:04:26.290Z,998.16
2018-04-12T03:04:52.431Z,998.12
2018-04-12T03:05:18.596Z,998.14
2018-04-12T03:05:44.731Z,998.12
2018-04-12T03:06:10.875Z,998.1
2018-04-12T03:06:37.036Z,998.11
2018-04-12T03:07:03.182Z,998.07
2018-04-12T03:07:29.342Z,998.11
2018-04-12T03:07:55.553Z,998.12
2018-04-12T03:08:21.724Z,998.11
2018-04-12T03:08:47.888Z,998.11
2018-04-12T03:09:14.094Z,998.12
2018-04-12T03:09:40.237Z,998.13
2018-04-12T03:10:06.376Z,998.12
2018-04-12T03:10:32.535Z,998.17
2018-04-12T03:10:58.678Z,998.12
2018-04-12T03:11:24.860Z,998.11
2018-04-12T03:11:51.002Z,998.1
2018-04-12T03:12:17.136Z,998.08
2018-04-12T03:12:43.279Z,998.04
2018-04-12T03:13:09.440Z,998.05
2018-04-12T03:13:35.585Z,998.08
2018-04-12T03:14:01.725Z,998.02
2018-04-12T03:14:27.863Z,998.06
2018-04-12T03:14:53.995Z,997.99
2018-04-12T03:15:20.130Z,998
2018-04-12T03:15:46.265Z,998.03
2018-04-12T03:16:12.408Z,998.04
2018-04-12T03:16:38.571Z,998
2018-04-12T03:17:04.713Z,998.04
2018-04-12T03:17:30.856Z,998.07
2018-04-12T03:17:56.993Z,998
2018-04-12T03:18:23.157Z,998.01
2018-04-12T03:18:49.294Z,998.01
2018-04-12T03:19:15.429Z,997.98
2018-04-12T03:19:41.570Z,997.95
2018-04-12T03:20:07.736Z,997.92
2018-04-12T03:20:33.871Z,997.89
2018-04-12T03:21:00.022Z,997.89
2018-04-12T03:21:26.155Z,997.86
2018-04-12T03:21:52.287Z,997.88
2018-04-12T03:22:18.429Z,997.86
2018-04-12T03:22:44.573Z,997.86
2018-04-12T03:23:10.706Z,997.83
2018-04-12T03:23:36.849Z,997.81
2018-04-12T03:24:02.986Z,997.81
2018-04-12T03:24:29.157Z,997.83
2018-04-12T03:24:55.321Z,997.86
2018-04-12T03:25:21.460Z,997.85
2018-04-12T03:25:47.624Z,997.87
2018-04-12T03:26:13.788Z,997.81
2018-04-12T03:26:39.926Z,997.82
2018-04-12T03:27:06.060Z,997.74
2018-04-12T03:27:32.206Z,997.8
2018-04-12T03:27:58.362Z,997.75
2018-04-12T03:28:24.502Z,997.79
2018-04-12T03:28:50.637Z,997.78
2018-04-12T03:29:16.776Z,997.75
2018-04-12T03:29:42.915Z,997.71
2018-04-12T03:30:09.126Z,997.76
2018-04-12T03:30:35.263Z,997.74
2018-04-12T03:31:01.399Z,997.73
2018-04-12T03:31:27.562Z,997.7
2018-04-12T03:31:53.726Z,997.72
2018-04-12T03:32:19.890Z,997.74
2018-04-12T03:32:46.055Z,997.74
2018-04-12T03:33:12.195Z,997.73
2018-04-12T03:33:38.381Z,997.77
2018-04-12T03:34:04.525Z,997.75
2018-04-12T03:34:30.659Z,997.73
2018-04-12T03:34:56.796Z,997.76
2018-04-12T03:35:22.934Z,997.78
2018-04-12T03:35:49.104Z,997.76
2018-04-12T03:36:15.250Z,997.74
2018-04-12T03:36:41.394Z,997.71
2018-04-12T03:37:07.524Z,997.72
2018-04-12T03:37:33.681Z,997.74
2018-04-12T03:37:59.842Z,997.69
2018-04-12T03:38:25.982Z,997.74
2018-04-12T03:38:52.144Z,997.71
2018-04-12T03:39:18.280Z,997.73
2018-04-12T03:39:44.422Z,997.73
2018-04-12T03:40:10.559Z,997.72
2018-04-12T03:40:36.696Z,997.69
2018-04-12T03:41:02.862Z,997.71
2018-04-12T03:41:29.010Z,997.72
2018-04-12T03:41:55.141Z,997.7
2018-04-12T03:42:21.281Z,997.67
2018-04-12T03:42:47.421Z,997.7
2018-04-12T03:43:13.578Z,997.7
2018-04-12T03:43:39.713Z,997.69
2018-04-12T03:44:05.855Z,997.66
2018-04-12T03:44:32.023Z,997.65
2018-04-12T03:44:58.157Z,997.67
2018-04-12T03:45:24.294Z,997.66
2018-04-12T03:45:50.436Z,997.71
2018-04-12T03:46:16.568Z,997.67
2018-04-12T03:46:42.732Z,997.69
2018-04-12T03:47:08.892Z,997.67
2018-04-12T03:47:35.033Z,997.63
2018-04-12T03:48:01.170Z,997.68
2018-04-12T03:48:27.306Z,997.63
2018-04-12T03:48:53.448Z,997.62
2018-04-12T03:49:19.642Z,997.66
2018-04-12T03:49:45.844Z,997.63
2018-04-12T03:50:11.975Z,997.65
2018-04-12T03:50:38.237Z,997.66
2018-04-12T03:51:04.272Z,997.65
2018-04-12T03:51:30.437Z,997.71
2018-04-12T03:51:56.577Z,997.64
2018-04-12T03:52:22.747Z,997.64
2018-04-12T03:52:48.884Z,997.67
2018-04-12T03:53:15.049Z,997.59
2018-04-12T03:53:41.196Z,997.63
2018-04-12T03:54:07.353Z,997.59
2018-04-12T03:54:33.495Z,997.57
2018-04-12T03:54:59.664Z,997.58
2018-04-12T03:55:25.804Z,997.6
2018-04-12T03:55:51.934Z,997.57
2018-04-12T03:56:18.100Z,997.55
2018-04-12T03:56:44.235Z,997.6
2018-04-12T03:57:10.375Z,997.56
2018-04-12T03:57:36.514Z,997.56
2018-04-12T03:58:02.654Z,997.58
2018-04-12T03:58:28.780Z,997.62
2018-04-12T03:58:54.923Z,997.55
2018-04-12T03:59:21.056Z,997.57
2018-04-12T03:59:47.193Z,997.58
2018-04-12T04:00:13.332Z,997.55
2018-04-12T04:00:39.499Z,997.56
2018-04-12T04:01:05.637Z,997.55
2018-04-12T04:01:31.832Z,997.59
2018-04-12T04:01:57.989Z,997.59
2018-04-12T04:02:24.123Z,997.56
2018-04-12T04:02:50.306Z,997.51
2018-04-12T04:03:16.447Z,997.49
2018-04-12T04:03:42.636Z,997.52
2018-04-12T04:04:08.778Z,997.51
2018-04-12T04:04:34.914Z,997.53
2018-04-12T04:05:01.065Z,997.52
2018-04-12T04:05:27.235Z,997.48
2018-04-12T04:05:53.372Z,997.53
2018-04-12T04:06:19.518Z,997.52
2018-04-12T04:06:45.661Z,997.52
2018-04-12T04:07:11.820Z,997.53
2018-04-12T04:07:37.991Z,997.44
2018-04-12T04:08:04.127Z,997.49
2018-04-12T04:08:30.264Z,997.49
2018-04-12T04:08:56.405Z,997.46
2018-04-12T04:09:22.540Z,997.49
2018-04-12T04:09:48.676Z,997.5
2018-04-12T04:10:14.817Z,997.47
2018-04-12T04:10:40.989Z,997.52
2018-04-12T04:11:07.173Z,997.47
2018-04-12T04:11:33.328Z,997.49
2018-04-12T04:11:59.470Z,997.55
2018-04-12T04:12:25.606Z,997.47
2018-04-12T04:12:51.765Z,997.48
2018-04-12T04:13:17.959Z,997.46
2018-04-12T04:13:44.099Z,997.48
2018-04-12T04:14:10.267Z,997.44
2018-04-12T04:14:36.402Z,997.47
2018-04-12T04:15:02.541Z,997.43
2018-04-12T04:15:28.702Z,997.48
2018-04-12T04:15:54.838Z,997.46
2018-04-12T04:16:21.006Z,997.49
2018-04-12T04:16:47.170Z,997.41
2018-04-12T04:17:13.329Z,997.45
2018-04-12T04:17:39.462Z,997.43
2018-04-12T04:18:05.604Z,997.45
2018-04-12T04:18:31.742Z,997.47
2018-04-12T04:18:57.878Z,997.47
2018-04-12T04:19:24.020Z,997.48
2018-04-12T04:19:50.154Z,997.46
2018-04-12T04:20:16.287Z,997.48
2018-04-12T04:20:42.433Z,997.49
2018-04-12T04:21:08.565Z,997.48
2018-04-12T04:21:34.698Z,997.39
2018-04-12T04:22:00.842Z,997.4
2018-04-12T04:22:26.983Z,997.43
2018-04-12T04:22:53.121Z,997.48
2018-04-12T04:23:19.262Z,997.47
2018-04-12T04:23:45.406Z,997.47
2018-04-12T04:24:11.545Z,997.45
2018-04-12T04:24:37.686Z,997.45
2018-04-12T04:25:03.822Z,997.41
2018-04-12T04:25:29.957Z,997.44
2018-04-12T04:25:56.094Z,997.47
2018-04-12T04:26:22.237Z,997.47
2018-04-12T04:26:48.370Z,997.47
2018-04-12T04:27:14.514Z,997.41
2018-04-12T04:27:40.649Z,997.35
2018-04-12T04:28:06.811Z,997.36
2018-04-12T04:28:32.941Z,997.42
2018-04-12T04:28:59.077Z,997.38
2018-04-12T04:29:25.232Z,997.41
2018-04-12T04:29:51.353Z,997.4
2018-04-12T04:30:17.516Z,997.39
2018-04-12T04:30:43.660Z,997.37
2018-04-12T04:31:09.795Z,997.37
2018-04-12T04:31:35.952Z,997.38
2018-04-12T04:32:02.104Z,997.37
2018-04-12T04:32:28.243Z,997.34
2018-04-12T04:32:54.386Z,997.35
2018-04-12T04:33:20.525Z,997.35
2018-04-12T04:33:46.690Z,997.36
2018-04-12T04:34:12.829Z,997.42
2018-04-12T04:34:38.966Z,997.37
2018-04-12T04:35:05.105Z,997.37
2018-04-12T04:35:31.243Z,997.41
2018-04-12T04:35:57.378Z,997.36
2018-04-12T04:36:23.540Z,997.39
2018-04-12T04:36:49.710Z,997.35
2018-04-12T04:37:15.847Z,997.36
2018-04-12T04:37:41.980Z,997.36
2018-04-12T04:38:08.167Z,997.33
2018-04-12T04:38:34.311Z,997.35
2018-04-12T04:39:00.454Z,997.3
2018-04-12T04:39:26.590Z,997.33
2018-04-12T04:39:52.731Z,997.31
2018-04-12T04:40:18.890Z,997.36
2018-04-12T04:40:45.034Z,997.39
2018-04-12T04:41:11.197Z,997.36
2018-04-12T04:41:37.338Z,997.37
2018-04-12T04:42:03.476Z,997.35
2018-04-12T04:42:29.614Z,997.33
2018-04-12T04:42:55.772Z,997.38
2018-04-12T04:43:21.914Z,997.34
2018-04-12T04:43:48.060Z,997.34
2018-04-12T04:44:14.200Z,997.37
2018-04-12T04:44:40.334Z,997.37
2018-04-12T04:45:06.496Z,997.35
2018-04-12T04:45:32.636Z,997.37
2018-04-12T04:45:58.774Z,997.34
2018-04-12T04:46:24.923Z,997.35
2018-04-12T04:46:51.063Z,997.35
2018-04-12T04:47:17.230Z,997.32
2018-04-12T04:47:43.361Z,997.39
2018-04-12T04:48:09.499Z,997.37
2018-04-12T04:48:35.635Z,997.38
2018-04-12T04:49:01.770Z,997.38
2018-04-12T04:49:27.915Z,997.38
2018-04-12T04:49:54.049Z,997.38
2018-04-12T04:50:20.190Z,997.39
2018-04-12T04:50:46.327Z,997.39
2018-04-12T04:51:12.466Z,997.36
2018-04-12T04:51:38.624Z,997.35
2018-04-12T04:52:04.765Z,997.42
2018-04-12T04:52:30.910Z,997.38
2018-04-12T04:52:57.069Z,997.36
2018-04-12T04:53:23.206Z,997.37
2018-04-12T04:53:49.346Z,997.36
2018-04-12T04:54:15.489Z,997.32
2018-04-12T04:54:41.647Z,997.33
2018-04-12T04:55:07.784Z,997.34
2018-04-12T04:55:33.925Z,997.33
2018-04-12T04:56:00.066Z,997.35
2018-04-12T04:56:26.227Z,997.32
2018-04-12T04:56:52.389Z,997.35
2018-04-12T04:57:18.533Z,997.34
2018-04-12T04:57:44.670Z,997.31
2018-04-12T04:58:10.810Z,997.33
2018-04-12T04:58:36.950Z,997.34
2018-04-12T04:59:03.095Z,997.36
2018-04-12T04:59:29.254Z,997.33
2018-04-12T04:59:55.451Z,997.34
2018-04-12T05:00:21.623Z,997.31
2018-04-12T05:00:47.786Z,997.29
2018-04-12T05:01:13.927Z,997.32
2018-04-12T05:01:40.073Z,997.34
2018-04-12T05:02:06.254Z,997.29
2018-04-12T05:02:32.392Z,997.32
2018-04-12T05:02:58.531Z,997.3
2018-04-12T05:03:24.692Z,997.3
2018-04-12T05:03:50.828Z,997.3
2018-04-12T05:04:16.973Z,997.38
2018-04-12T05:04:43.111Z,997.33
2018-04-12T05:05:09.272Z,997.31
2018-04-12T05:05:35.423Z,997.29
2018-04-12T05:06:01.580Z,997.27
2018-04-12T05:06:27.722Z,997.34
2018-04-12T05:06:53.862Z,997.29
2018-04-12T05:07:20.042Z,997.26
2018-04-12T05:07:46.135Z,997.28
2018-04-12T05:08:12.271Z,997.27
2018-04-12T05:08:38.408Z,997.31
2018-04-12T05:09:04.560Z,997.26
2018-04-12T05:09:30.696Z,997.28
2018-04-12T05:09:56.834Z,997.25
2018-04-12T05:10:22.968Z,997.29
2018-04-12T05:10:49.112Z,997.28
2018-04-12T05:11:15.274Z,997.32
2018-04-12T05:11:41.414Z,997.27
2018-04-12T05:12:07.581Z,997.29
2018-04-12T05:12:33.743Z,997.28
2018-04-12T05:12:59.877Z,997.32
2018-04-12T05:13:26.019Z,997.31
2018-04-12T05:13:52.157Z,997.32
2018-04-12T05:14:18.319Z,997.28
2018-04-12T05:14:44.457Z,997.29
2018-04-12T05:15:10.592Z,997.3
2018-04-12T05:15:36.866Z,997.31
2018-04-12T05:16:02.942Z,997.3
2018-04-12T05:16:29.076Z,997.3
2018-04-12T05:16:55.212Z,997.35
2018-04-12T05:17:21.381Z,997.32
2018-04-12T05:17:47.519Z,997.29
2018-04-12T05:18:13.655Z,997.32
2018-04-12T05:18:39.831Z,997.36
2018-04-12T05:19:05.970Z,997.32
2018-04-12T05:19:32.139Z,997.33
2018-04-12T05:19:58.272Z,997.31
2018-04-12T05:20:24.432Z,997.32
2018-04-12T05:20:50.574Z,997.27
2018-04-12T05:21:16.710Z,997.28
2018-04-12T05:21:42.842Z,997.28
2018-04-12T05:22:08.985Z,997.29
2018-04-12T05:22:35.151Z,997.32
2018-04-12T05:23:01.289Z,997.24
2018-04-12T05:23:27.428Z,997.3
2018-04-12T05:23:53.559Z,997.26
2018-04-12T05:24:19.709Z,997.25
2018-04-12T05:24:45.841Z,997.24
2018-04-12T05:25:12.009Z,997.24
2018-04-12T05:25:38.156Z,997.18
2018-04-12T05:26:04.294Z,997.22
2018-04-12T05:26:30.429Z,997.31
2018-04-12T05:26:56.566Z,997.32
2018-04-12T05:27:23.600Z,997.21